Portada
METAR-TAF:

METAR-TAF

Aeropuertos :

Base Aérea de Batajnica

Batajnica, Serbia

latitud: 44-56-07N, longitud: 020-15-27E, altitud: 86 m

Observación

El informe se hizo hace 11 minutos, a las 11:00 UTC
Viento 6 kt del noroeste, variando entre oeste y norte
Temperatura 28°C
Humedad 48%
Presión 1015 hPa
Visibilidad 10 km o más
Nubes dispersas a una altura de 4000 ft

METAR: LYBT 051100Z 32006KT 280V010 9999 SCT040 28/16 Q1015 NOSIG

Hora: 13:11 (11:11 UTC)

Pronóstico

El informe se hizo hace 6 horas y 11 minutos, a las 05:00 UTC
Pronóstico válido del 05 a las 06 UTC al 06 a las 06 UTC
Viento 8 kt del oeste-noroeste
Visibilidad 10 km o más
Nubes dispersas a una altura de 4500 ft

TAF: LYBT 050500Z 0506/0606 29008KT 9999 SCT045 TX29/0514Z TN18/0603Z

Observaciones y pronósticos meteorológicos de más de 4000 aeropuertos (mensajes METAR y TAF).

Los puntos amarillos y rojos representan las estaciones disponibles.

Ponga el ratón en el punto deseado para ver el nombre de la estación.

Haga clic para ver las observaciones y los pronósticos meteorológicos.

Para cambiar el mapa : haga clic en los botones verdes con una cruz de color negro para hacer un zoom, en el botón verde con un guión para alejar o en las flechas verdes para mapas adyacentes.


METAR-TAF: